Current Weather

Stan Stamper Muni

Hugo, Oklahoma (KHHW)

Report from: Friday, February 23, 2024 2:55 PM CST
Current time: Friday, February 23, 2024 3:31 PM CST

Nearby weather – Weather history – Daily summaries
Weather forecast

Temperature20.0°C (68.0°F)
Dew point-1.0°C (30.2°F)
Winds 12 kts (6.2 m/s, 13.8 mph) West-Northwest (290°)
Wind gusts 17 kts (8.7 m/s, 19.6 mph)
Visibility10 mi. (16.1 km)
Clouds Sky clear
Altimeter30.01 in.Hg (1016 mB)
Relative humidity24 %
Density altitude575 ft. (175 m)
Remarks Fully automated report
Automated weather observing station with precipitation discriminator
Flight conditions Visual Meteorological Conditions
Raw dataKHHW 232055Z AUTO 29012G17KT 10SM CLR 20/M01 A3001 RMK AO2
An error has occurred. This application may no longer respond until reloaded. Reload 🗙